Park Place, South Carolina
Current Conditions -  °F | °C
As of 10:53 AM on Sunday 21 Dec 2014 (Local Time) from KGMU Reporting Station
Overcast Overcast  
Wind Chill: 41°   Ceiling: 3900
Heat Index: 46°   Visibility: 10mi
Dew Point: 39°   Wind: 9mph
Humidity: 76%   Direction: 50°NE
Pressure: 30.25"   Gusts: NA
Location:  34.903°N, 82.4092°W
Report Text: KGMU 211553Z 05008KT 10SM OVC039 08/04 A3025 RMK AO2 SLP248 T00780039
Loading
Personal Weather Stations






























Interactive Weather Map New forecast layout! Learn more

10-Day Weather Forecast

Advertisements
Track Severe Weather on mobile